createdAt,value
2018-02-22T00:01:09.647Z,5.70
2018-02-22T00:03:48.280Z,5.80
2018-02-22T00:06:27.059Z,5.53
2018-02-22T00:09:04.670Z,134.95
2018-02-22T00:11:42.962Z,41.65
2018-02-22T00:14:21.624Z,16.67
2018-02-22T00:17:02.655Z,6.72
2018-02-22T00:19:40.956Z,8.68
2018-02-22T00:22:25.787Z,6.30
2018-02-22T00:25:05.338Z,12.93
2018-02-22T00:27:42.724Z,12.10
2018-02-22T00:30:21.212Z,9.77
2018-02-22T00:32:59.658Z,8.05
2018-02-22T00:35:38.136Z,7.60
2018-02-22T00:38:15.741Z,7.05
2018-02-22T00:40:54.241Z,7.62
2018-02-22T00:43:32.740Z,8.15
2018-02-22T00:46:13.155Z,8.20
2018-02-22T00:48:51.790Z,8.18
2018-02-22T00:51:30.348Z,8.13
2018-02-22T00:54:08.746Z,8.77
2018-02-22T00:56:48.325Z,7.82
2018-02-22T00:59:28.895Z,7.97
2018-02-22T01:02:07.552Z,9.65
2018-02-22T01:04:46.164Z,8.85
2018-02-22T01:07:24.538Z,8.73
2018-02-22T01:10:06.014Z,9.88
2018-02-22T01:12:44.570Z,9.80
2018-02-22T01:15:26.155Z,13.05
2018-02-22T01:18:04.987Z,13.62
2018-02-22T01:20:45.553Z,20.58
2018-02-22T01:23:24.093Z,16.08
2018-02-22T01:26:03.394Z,15.00
2018-02-22T01:28:44.118Z,15.15
2018-02-22T01:31:24.565Z,14.48
2018-02-22T01:34:03.128Z,12.00
2018-02-22T01:36:41.873Z,11.10
2018-02-22T01:39:20.383Z,9.85
2018-02-22T01:41:58.980Z,9.23
2018-02-22T01:44:37.199Z,9.38
2018-02-22T01:47:15.661Z,10.90
2018-02-22T01:49:54.132Z,8.98
2018-02-22T01:52:32.541Z,8.77
2018-02-22T01:55:12.729Z,7.72
2018-02-22T01:57:53.229Z,8.77
2018-02-22T02:00:31.701Z,8.57
2018-02-22T02:03:10.193Z,9.02
2018-02-22T02:05:49.860Z,9.20
2018-02-22T02:08:28.250Z,10.07
2018-02-22T02:11:07.557Z,9.68
2018-02-22T02:13:45.596Z,12.32
2018-02-22T02:16:24.146Z,10.15
2018-02-22T02:21:47.085Z,11.07
2018-02-22T02:24:25.750Z,12.30
2018-02-22T02:27:07.303Z,14.65
2018-02-22T02:29:45.779Z,15.00
2018-02-22T02:32:24.282Z,13.82
2018-02-22T02:35:02.671Z,16.30
2018-02-22T02:37:42.317Z,12.77
2018-02-22T02:40:24.050Z,13.52
2018-02-22T02:43:02.625Z,13.07
2018-02-22T02:45:42.181Z,13.57
2018-02-22T02:48:20.638Z,12.85
2018-02-22T02:50:59.420Z,14.73
2018-02-22T02:53:36.928Z,13.05
2018-02-22T02:56:18.534Z,22.23
2018-02-22T02:58:57.128Z,16.30
2018-02-22T03:01:35.524Z,15.43
2018-02-22T03:04:14.953Z,15.95
2018-02-22T03:06:54.454Z,18.50
2018-02-22T03:09:33.916Z,16.85
2018-02-22T03:12:12.453Z,17.52
2018-02-22T03:14:53.079Z,18.50
2018-02-22T03:17:33.747Z,18.00
2018-02-22T03:20:12.250Z,18.20
2018-02-22T03:22:51.001Z,17.33
2018-02-22T03:25:29.593Z,17.70
2018-02-22T03:28:09.833Z,16.60
2018-02-22T03:30:48.787Z,15.77
2018-02-22T03:33:29.585Z,15.90
2018-02-22T03:36:08.311Z,17.45
2018-02-22T03:38:46.704Z,17.20
2018-02-22T03:41:25.369Z,18.33
2018-02-22T03:44:03.611Z,19.80
2018-02-22T03:46:44.336Z,17.30
2018-02-22T03:49:24.761Z,19.10
2018-02-22T03:52:05.177Z,19.55
2018-02-22T03:54:44.247Z,17.95
2018-02-22T03:57:23.610Z,18.73
2018-02-22T04:00:03.956Z,18.80
2018-02-22T04:02:42.375Z,18.40
2018-02-22T04:05:20.714Z,18.23
2018-02-22T04:08:00.160Z,18.55
2018-02-22T04:10:39.704Z,20.00
2018-02-22T04:13:20.366Z,21.70
2018-02-22T04:15:58.714Z,22.15
2018-02-22T04:18:37.185Z,22.55
2018-02-22T04:21:19.673Z,23.05
2018-02-22T04:23:58.536Z,19.55
2018-02-22T04:26:39.215Z,20.55
2018-02-22T04:29:17.995Z,21.55
2018-02-22T04:31:56.559Z,21.58
2018-02-22T04:34:35.074Z,19.75
2018-02-22T04:37:13.694Z,19.70
2018-02-22T04:39:52.274Z,19.58
2018-02-22T04:42:30.918Z,20.30
2018-02-22T04:45:11.419Z,19.80
2018-02-22T04:47:51.827Z,19.27
2018-02-22T04:50:30.229Z,18.42
2018-02-22T04:53:11.015Z,15.32
2018-02-22T04:55:50.433Z,16.65
2018-02-22T04:58:29.163Z,14.57
2018-02-22T05:01:08.716Z,15.85
2018-02-22T05:03:48.132Z,18.83
2018-02-22T05:06:26.749Z,19.30
2018-02-22T05:09:05.317Z,17.40
2018-02-22T05:11:47.835Z,16.95
2018-02-22T05:14:25.592Z,18.12
2018-02-22T05:17:06.006Z,19.00
2018-02-22T05:19:48.454Z,19.58
2018-02-22T05:22:27.918Z,19.98
2018-02-22T05:25:07.384Z,19.23
2018-02-22T05:27:45.791Z,18.77
2018-02-22T05:30:24.129Z,19.33
2018-02-22T05:33:10.690Z,17.33
2018-02-22T05:35:49.530Z,18.35
2018-02-22T05:38:30.186Z,20.33
2018-02-22T05:41:08.612Z,22.85
2018-02-22T05:43:48.936Z,24.98
2018-02-22T05:46:27.352Z,23.80
2018-02-22T05:49:06.893Z,27.98
2018-02-22T05:51:45.256Z,26.52
2018-02-22T05:54:24.756Z,23.38
2018-02-22T05:57:03.335Z,28.08
2018-02-22T05:59:43.227Z,28.85
2018-02-22T06:02:21.760Z,31.00
2018-02-22T06:05:00.155Z,30.42
2018-02-22T06:07:40.817Z,31.87
2018-02-22T06:10:19.350Z,29.80
2018-02-22T06:12:59.930Z,35.40
2018-02-22T06:15:38.614Z,32.03
2018-02-22T06:18:17.177Z,31.48
2018-02-22T06:20:54.639Z,33.13
2018-02-22T06:23:35.290Z,31.62
2018-02-22T06:26:13.876Z,32.42
2018-02-22T06:28:52.476Z,32.00
2018-02-22T06:31:30.967Z,31.85
2018-02-22T06:34:09.635Z,32.05
2018-02-22T06:36:50.008Z,30.30
2018-02-22T06:39:34.636Z,29.60
2018-02-22T06:42:13.050Z,28.77
2018-02-22T06:44:51.464Z,29.12
2018-02-22T06:47:31.171Z,27.87
2018-02-22T06:50:09.691Z,28.73
2018-02-22T06:52:48.455Z,31.45
2018-02-22T06:55:27.855Z,28.70
2018-02-22T06:58:06.707Z,30.40
2018-02-22T07:00:46.211Z,30.70
2018-02-22T07:03:24.852Z,25.23
2018-02-22T07:06:04.440Z,26.62
2018-02-22T07:08:43.085Z,24.67
2018-02-22T07:11:23.753Z,23.83
2018-02-22T07:14:02.122Z,24.52
2018-02-22T07:16:40.596Z,29.40
2018-02-22T07:19:18.998Z,30.45
2018-02-22T07:21:58.556Z,27.40
2018-02-22T07:24:38.379Z,27.30
2018-02-22T07:27:16.980Z,22.80
2018-02-22T07:29:55.624Z,23.05
2018-02-22T07:32:35.237Z,24.45
2018-02-22T07:35:14.915Z,21.10
2018-02-22T07:37:56.386Z,21.95
2018-02-22T07:40:37.975Z,21.65
2018-02-22T07:43:18.372Z,21.40
2018-02-22T07:46:01.868Z,20.10
2018-02-22T07:48:44.377Z,20.20
2018-02-22T07:51:23.989Z,21.65
2018-02-22T07:54:02.529Z,20.35
2018-02-22T07:56:42.698Z,18.80
2018-02-22T07:59:21.628Z,19.75
2018-02-22T08:02:00.077Z,21.27
2018-02-22T08:04:41.401Z,23.33
2018-02-22T08:07:20.324Z,24.80
2018-02-22T08:10:02.777Z,19.12
2018-02-22T08:12:42.836Z,18.48
2018-02-22T08:15:23.837Z,25.12
2018-02-22T08:18:02.335Z,16.05
2018-02-22T08:20:41.885Z,16.12
2018-02-22T08:23:20.396Z,17.02
2018-02-22T08:25:57.878Z,15.73
2018-02-22T08:28:40.750Z,18.92
2018-02-22T08:31:18.919Z,18.87
2018-02-22T08:33:58.591Z,18.62
2018-02-22T08:36:39.955Z,16.25
2018-02-22T08:39:21.347Z,16.30
2018-02-22T08:42:01.019Z,16.10
2018-02-22T08:44:39.728Z,14.15
2018-02-22T08:47:18.502Z,12.57
2018-02-22T08:49:57.139Z,12.65
2018-02-22T08:52:35.523Z,11.70
2018-02-22T08:55:16.018Z,11.65
2018-02-22T08:57:55.472Z,11.82
2018-02-22T09:00:34.861Z,10.27
2018-02-22T09:03:13.265Z,10.98
2018-02-22T09:05:52.679Z,11.12
2018-02-22T09:08:31.331Z,10.07
2018-02-22T09:11:11.853Z,10.27
2018-02-22T09:13:51.709Z,11.98
2018-02-22T09:16:30.253Z,10.27
2018-02-22T09:19:09.800Z,11.95
2018-02-22T09:21:48.271Z,10.70
2018-02-22T09:24:27.759Z,9.82
2018-02-22T09:27:06.170Z,8.70
2018-02-22T09:29:46.627Z,9.95
2018-02-22T09:32:26.107Z,8.15
2018-02-22T09:35:05.890Z,9.57
2018-02-22T09:37:44.446Z,9.23
2018-02-22T09:40:22.905Z,9.52
2018-02-22T09:43:01.707Z,8.18
2018-02-22T09:45:40.325Z,8.73
2018-02-22T09:48:19.275Z,9.10
2018-02-22T09:50:57.804Z,8.30
2018-02-22T09:53:36.288Z,8.13
2018-02-22T09:56:14.764Z,8.27
2018-02-22T09:58:55.456Z,8.35
2018-02-22T10:01:34.942Z,9.82
2018-02-22T10:04:13.487Z,9.02
2018-02-22T10:06:52.084Z,7.40
2018-02-22T10:09:32.611Z,7.12
2018-02-22T10:12:11.067Z,8.27
2018-02-22T10:14:49.634Z,7.75
2018-02-22T10:17:28.101Z,8.00
2018-02-22T10:20:06.640Z,8.15
2018-02-22T10:22:46.063Z,7.80
2018-02-22T10:25:24.594Z,7.80
2018-02-22T10:28:04.060Z,7.43
2018-02-22T10:30:42.439Z,7.95
2018-02-22T10:33:21.882Z,7.18
2018-02-22T10:36:01.407Z,9.00
2018-02-22T10:38:40.921Z,9.02
2018-02-22T10:41:19.368Z,10.07
2018-02-22T10:43:58.784Z,11.35
2018-02-22T10:46:38.713Z,10.75
2018-02-22T10:49:17.340Z,11.20
2018-02-22T10:51:55.923Z,10.68
2018-02-22T10:54:34.166Z,11.20
2018-02-22T10:57:12.731Z,11.85
2018-02-22T10:59:51.229Z,13.00
2018-02-22T11:02:35.894Z,11.38
2018-02-22T11:05:14.262Z,11.98
2018-02-22T11:07:52.793Z,10.95
2018-02-22T11:10:31.328Z,10.50
2018-02-22T11:13:10.864Z,9.45
2018-02-22T11:15:51.630Z,9.32
2018-02-22T11:18:32.155Z,10.30
2018-02-22T11:21:12.747Z,9.93
2018-02-22T11:23:52.330Z,8.63
2018-02-22T11:26:31.752Z,10.20
2018-02-22T11:29:10.335Z,10.50
2018-02-22T11:31:49.789Z,7.75
2018-02-22T11:34:29.567Z,8.70
2018-02-22T11:37:08.221Z,8.30
2018-02-22T11:39:45.532Z,8.40
2018-02-22T11:42:26.425Z,8.55
2018-02-22T11:45:05.841Z,9.02
2018-02-22T11:47:44.359Z,9.07
2018-02-22T11:50:23.045Z,9.15
2018-02-22T11:53:00.682Z,8.00
2018-02-22T11:55:40.141Z,8.13
2018-02-22T11:58:17.767Z,8.95
2018-02-22T12:00:56.431Z,8.35
2018-02-22T12:03:36.040Z,9.02
2018-02-22T12:06:14.772Z,9.43
2018-02-22T12:08:55.356Z,9.23
2018-02-22T12:11:33.734Z,7.80
2018-02-22T12:14:12.293Z,7.87
2018-02-22T12:16:50.746Z,7.87
2018-02-22T12:19:29.144Z,8.18
2018-02-22T12:22:07.738Z,8.50
2018-02-22T12:24:47.533Z,7.40
2018-02-22T12:27:25.905Z,8.27
2018-02-22T12:30:04.343Z,7.60
2018-02-22T12:32:42.802Z,7.00
2018-02-22T12:35:22.185Z,8.40
2018-02-22T12:38:00.746Z,6.45
2018-02-22T12:40:40.277Z,6.62
2018-02-22T12:43:20.566Z,8.25
2018-02-22T12:45:59.205Z,7.28
2018-02-22T12:48:38.776Z,7.57
2018-02-22T12:51:17.547Z,7.43
2018-02-22T12:53:56.822Z,7.78
2018-02-22T12:56:35.322Z,8.07
2018-02-22T12:59:13.998Z,8.43
2018-02-22T13:01:53.504Z,8.15
2018-02-22T13:04:32.034Z,9.50
2018-02-22T13:07:10.423Z,8.10
2018-02-22T13:09:50.961Z,8.98
2018-02-22T13:12:28.651Z,7.72
2018-02-22T13:15:07.204Z,9.30
2018-02-22T13:17:45.674Z,7.78
2018-02-22T13:20:24.221Z,8.52
2018-02-22T13:23:02.645Z,7.45
2018-02-22T13:25:42.149Z,7.97
2018-02-22T13:28:20.626Z,7.40
2018-02-22T13:30:59.404Z,7.32
2018-02-22T13:33:51.145Z,7.03
2018-02-22T13:36:32.871Z,6.60
2018-02-22T13:39:16.362Z,7.28
2018-02-22T13:41:54.878Z,7.22
2018-02-22T13:44:45.577Z,7.40
2018-02-22T13:47:28.732Z,7.28
2018-02-22T13:50:20.400Z,8.13
2018-02-22T13:52:59.018Z,7.80
2018-02-22T13:55:40.544Z,9.32
2018-02-22T13:58:19.013Z,9.73
2018-02-22T14:01:09.776Z,9.30
2018-02-22T14:03:49.208Z,9.63
2018-02-22T14:06:27.881Z,8.75
2018-02-22T14:09:06.353Z,10.82
2018-02-22T14:11:46.049Z,10.68
2018-02-22T14:14:24.640Z,11.45
2018-02-22T14:17:03.078Z,11.05
2018-02-22T14:19:42.608Z,9.80
2018-02-22T14:22:21.261Z,10.82
2018-02-22T14:24:59.599Z,11.52
2018-02-22T14:27:39.165Z,11.35
2018-02-22T14:30:17.549Z,11.45
2018-02-22T14:32:57.945Z,19.42
2018-02-22T14:35:36.505Z,14.87
2018-02-22T14:38:15.924Z,16.23
2018-02-22T14:40:54.546Z,21.80
2018-02-22T14:43:34.079Z,26.62
2018-02-22T14:46:13.415Z,43.78
2018-02-22T14:48:51.950Z,41.22
2018-02-22T14:51:30.492Z,45.00
2018-02-22T14:54:09.124Z,51.70
2018-02-22T14:56:47.607Z,68.40
2018-02-22T14:59:26.195Z,65.50
2018-02-22T15:02:06.782Z,74.82
2018-02-22T15:04:46.249Z,68.93
2018-02-22T15:07:24.680Z,80.93
2018-02-22T15:10:04.311Z,105.05
2018-02-22T15:12:42.879Z,119.30
2018-02-22T15:15:21.618Z,84.13
2018-02-22T15:18:00.268Z,97.37
2018-02-22T15:20:40.720Z,98.12
2018-02-22T15:23:19.317Z,74.62
2018-02-22T15:25:58.901Z,97.00
2018-02-22T15:28:37.628Z,105.43
2018-02-22T15:31:16.111Z,104.82
2018-02-22T15:33:54.667Z,93.95
2018-02-22T15:36:33.131Z,113.62
2018-02-22T15:39:12.740Z,100.05
2018-02-22T15:41:53.045Z,99.87
2018-02-22T15:44:32.441Z,87.28
2018-02-22T15:47:11.846Z,74.22
2018-02-22T15:49:51.295Z,50.70
2018-02-22T15:52:29.982Z,37.40
2018-02-22T15:55:08.485Z,18.98
2018-02-22T15:57:48.183Z,15.27
2018-02-22T16:00:26.712Z,14.70
2018-02-22T16:03:06.120Z,15.80
2018-02-22T16:05:44.618Z,17.73
2018-02-22T16:08:23.019Z,22.35
2018-02-22T16:11:01.564Z,25.02
2018-02-22T16:13:39.880Z,9.85
2018-02-22T16:16:19.441Z,10.02
2018-02-22T16:18:58.970Z,14.00
2018-02-22T16:21:38.461Z,5.72
2018-02-22T16:24:17.982Z,5.28
2018-02-22T16:26:57.677Z,9.65
2018-02-22T16:29:38.199Z,10.20
2018-02-22T16:32:16.785Z,6.35
2018-02-22T16:34:56.300Z,22.00
2018-02-22T16:37:34.846Z,4.35
2018-02-22T16:40:13.625Z,4.95
2018-02-22T16:42:52.112Z,5.12
2018-02-22T16:45:30.594Z,5.25
2018-02-22T16:48:11.036Z,5.82
2018-02-22T16:50:50.596Z,3.80
2018-02-22T16:53:29.121Z,5.00
2018-02-22T16:56:07.609Z,5.40
2018-02-22T16:58:46.025Z,4.12
2018-02-22T17:01:26.586Z,5.18
2018-02-22T17:04:07.190Z,4.32
2018-02-22T17:06:45.802Z,3.80
2018-02-22T17:09:24.289Z,3.62
2018-02-22T17:12:02.950Z,3.35
2018-02-22T17:14:42.348Z,3.15
2018-02-22T17:17:20.593Z,3.55
2018-02-22T17:19:58.898Z,4.07
2018-02-22T17:22:37.371Z,3.83
2018-02-22T17:25:17.902Z,4.50
2018-02-22T17:28:02.267Z,4.03
2018-02-22T17:30:46.879Z,5.53
2018-02-22T17:33:25.404Z,4.35
2018-02-22T17:36:24.757Z,4.60
2018-02-22T17:42:44.092Z,3.45
2018-02-22T17:45:22.512Z,4.50
2018-02-22T17:48:00.971Z,3.62
2018-02-22T17:50:40.576Z,3.50
2018-02-22T17:53:19.202Z,3.33
2018-02-22T17:55:57.687Z,3.40
2018-02-22T17:58:37.267Z,4.00
2018-02-22T18:01:16.772Z,3.78
2018-02-22T18:03:54.406Z,3.35
2018-02-22T18:06:33.752Z,3.28
2018-02-22T18:09:14.315Z,4.00
2018-02-22T18:11:52.713Z,3.40
2018-02-22T18:14:31.088Z,3.78
2018-02-22T18:17:09.511Z,4.50
2018-02-22T18:19:48.040Z,3.97
2018-02-22T18:22:26.393Z,4.25
2018-02-22T18:25:04.987Z,5.18
2018-02-22T18:27:44.490Z,4.07
2018-02-22T18:30:21.907Z,5.00
2018-02-22T18:33:01.426Z,3.47
2018-02-22T18:35:40.959Z,5.57
2018-02-22T18:38:19.707Z,5.80
2018-02-22T18:41:03.147Z,5.15
2018-02-22T18:43:44.609Z,7.90
2018-02-22T18:46:23.015Z,3.67
2018-02-22T18:49:01.993Z,6.20
2018-02-22T18:51:40.211Z,4.50
2018-02-22T18:54:18.622Z,4.82
2018-02-22T18:56:57.142Z,5.18
2018-02-22T18:59:36.402Z,4.60
2018-02-22T19:02:15.053Z,5.57
2018-02-22T19:04:53.327Z,3.30
2018-02-22T19:07:31.771Z,3.75
2018-02-22T19:10:10.112Z,4.90
2018-02-22T19:12:49.210Z,4.00
2018-02-22T19:15:28.978Z,4.18
2018-02-22T19:18:07.511Z,4.00
2018-02-22T19:20:44.853Z,4.00
2018-02-22T19:23:23.399Z,3.72
2018-02-22T19:26:03.118Z,4.25
2018-02-22T19:28:42.685Z,4.53
2018-02-22T19:31:22.334Z,4.12
2018-02-22T19:34:00.762Z,4.47
2018-02-22T19:36:40.250Z,5.25
2018-02-22T19:39:19.822Z,4.03
2018-02-22T19:41:58.427Z,4.78
2018-02-22T19:44:37.031Z,4.90
2018-02-22T19:47:18.411Z,5.00
2018-02-22T19:49:58.125Z,5.18
2018-02-22T19:52:36.596Z,5.35
2018-02-22T19:55:15.145Z,4.60
2018-02-22T19:57:54.819Z,5.85
2018-02-22T20:00:33.444Z,5.18
2018-02-22T20:03:12.837Z,4.62
2018-02-22T20:05:53.628Z,4.35
2018-02-22T20:08:32.234Z,4.72
2018-02-22T20:11:10.847Z,4.20
2018-02-22T20:13:49.720Z,6.90
2018-02-22T20:16:28.259Z,4.12
2018-02-22T20:19:06.900Z,4.28
2018-02-22T20:21:46.342Z,4.60
2018-02-22T20:24:24.075Z,4.85
2018-02-22T20:27:02.771Z,4.93
2018-02-22T20:29:41.429Z,5.18
2018-02-22T20:32:20.096Z,6.00
2018-02-22T20:34:58.646Z,5.30
2018-02-22T20:37:38.154Z,4.70
2018-02-22T20:40:16.803Z,5.10
2018-02-22T20:42:57.374Z,8.25
2018-02-22T20:45:38.210Z,4.70
2018-02-22T20:48:16.924Z,4.20
2018-02-22T20:51:13.303Z,5.75
2018-02-22T20:53:52.960Z,4.65
2018-02-22T20:56:31.504Z,4.47
2018-02-22T20:59:10.047Z,4.80
2018-02-22T21:01:48.670Z,4.57
2018-02-22T21:04:28.149Z,5.00
2018-02-22T21:07:06.871Z,4.32
2018-02-22T21:09:45.332Z,5.30
2018-02-22T21:12:24.954Z,4.53
2018-02-22T21:15:03.622Z,4.53
2018-02-22T21:17:43.067Z,5.05
2018-02-22T21:20:24.770Z,3.90
2018-02-22T21:23:05.400Z,4.05
2018-02-22T21:25:43.940Z,5.55
2018-02-22T21:28:22.609Z,4.68
2018-02-22T21:31:01.100Z,4.50
2018-02-22T21:33:42.421Z,4.75
2018-02-22T21:36:22.220Z,4.45
2018-02-22T21:39:04.312Z,4.50
2018-02-22T21:41:43.355Z,4.95
2018-02-22T21:44:22.126Z,4.45
2018-02-22T21:47:00.735Z,5.18
2018-02-22T21:49:40.171Z,4.93
2018-02-22T21:52:20.624Z,4.35
2018-02-22T21:54:59.151Z,4.45
2018-02-22T21:57:40.935Z,4.50
2018-02-22T22:00:18.444Z,4.43
2018-02-22T22:02:56.987Z,4.50
2018-02-22T22:05:35.620Z,4.53
2018-02-22T22:08:14.330Z,4.65
2018-02-22T22:10:52.847Z,4.15
2018-02-22T22:13:31.543Z,4.10
2018-02-22T22:16:12.053Z,3.85
2018-02-22T22:18:50.658Z,4.37
2018-02-22T22:21:30.269Z,3.95
2018-02-22T22:24:09.757Z,4.00
2018-02-22T22:26:48.275Z,4.35
2018-02-22T22:29:26.913Z,4.12
2018-02-22T22:32:06.316Z,3.65
2018-02-22T22:34:45.019Z,4.10
2018-02-22T22:37:23.514Z,3.87
2018-02-22T22:40:01.960Z,4.12
2018-02-22T22:42:41.419Z,3.90
2018-02-22T22:45:19.895Z,3.72
2018-02-22T22:47:58.624Z,3.10
2018-02-22T22:50:37.531Z,4.35
2018-02-22T22:53:16.210Z,4.85
2018-02-22T22:55:56.371Z,4.35
2018-02-22T22:58:35.578Z,3.70
2018-02-22T23:01:14.093Z,3.83
2018-02-22T23:03:52.671Z,4.07
2018-02-22T23:06:31.251Z,3.55
2018-02-22T23:09:10.586Z,3.50
2018-02-22T23:11:50.205Z,3.20
2018-02-22T23:14:29.487Z,3.83
2018-02-22T23:17:11.310Z,3.40
2018-02-22T23:19:50.539Z,4.35
2018-02-22T23:22:28.817Z,3.15
2018-02-22T23:25:08.398Z,3.55
2018-02-22T23:27:46.938Z,3.45
2018-02-22T23:30:26.014Z,2.95
2018-02-22T23:33:04.166Z,3.10
2018-02-22T23:35:43.844Z,5.22
2018-02-22T23:38:23.443Z,3.50
2018-02-22T23:41:18.569Z,4.05
2018-02-22T23:43:57.096Z,3.05
2018-02-22T23:46:34.448Z,3.85
2018-02-22T23:49:14.099Z,3.55
2018-02-22T23:51:52.587Z,2.87
2018-02-22T23:54:32.201Z,3.12
2018-02-22T23:57:10.982Z,2.80
2018-02-22T23:59:49.347Z,2.97
